Beaufort, NC (28516)

2:22 AM EDT on August 26, 2016 (GMT -0400)
NOS_NWLON | | Change Station

Elev 0 ft 34.72 °N, 76.67 °W | Updated 34 minutes ago

Clear
Clear
79 °F
Feels Like 77 °F
N
6
Wind Variable Wind from SSE
Gusts 7.0 mph

Today
High -- | Low -- °F
--% Chance of Precip.
Yesterday
High -- | Low -- °F
Precip. -- in
Pressure 30.09 in
Visibility 10.0 miles
Clouds Clear
Heat Index 77 °F
Dew Point Not available.
Humidity Not available.
Rainfall in
Snow Depth Not available.
6:35 AM 7:40 PM
Last Quarter, 38% visible
METAR KMRH 260558Z AUTO 00000KT 10SM CLR 22/20 A3009 RMK AO2 SLP189 T02220200 10261 20211 56001 TSNO
Pressure 30.09 in
Visibility 10.0 miles
Clouds Clear
Heat Index 77 °F
Dew Point Not available.
Humidity Not available.
Rainfall in
Snow Depth Not available.
6:35 AM 7:40 PM
Last Quarter, 38% visible
METAR KMRH 260558Z AUTO 00000KT 10SM CLR 22/20 A3009 RMK AO2 SLP189 T02220200 10261 20211 56001 TSNO

10-Day Weather Forecast

Almanac

Astronomy

Aug. 26, 2016 Rise Set
Actual Time
Civil Twilight
Nautical Twilight
Astronomical Twilight
Moon
Length of Visible Light
Length of Day
Tomorrow will be .
, % of the Moon is Illuminated

Today's Extremes

State Highs State Lows

Community

WunderPhotos

Upload Photos

1,935,058 photos uploaded!

WunderBlog® & News

Nearby

Air Quality

  Air Quality AQ Index Pollutant
Not available.

Snow Depth

Station Depth Elevation

Earthquake Activity

City Distance Mag. Time & Date
Minimum magnitude displayed is 2.5.

Coastal Water Temperatures

Place Temperature

Stations

Nearby Weather Stations

Station Location Temp. Windchill Dew Point Humidity Wind Precip. Elev Updated Type
                   

Watches & Warnings

There are currently no watches in effect.